createdAt,value
2023-09-09T00:01:51.075Z,39.16
2023-09-09T00:04:37.225Z,39.27
2023-09-09T00:07:23.584Z,39.14
2023-09-09T00:10:10.106Z,39.29
2023-09-09T00:12:58.961Z,39.46
2023-09-09T00:15:44.641Z,39.37
2023-09-09T00:18:30.520Z,39.55
2023-09-09T00:21:16.659Z,39.62
2023-09-09T00:24:03.120Z,39.65
2023-09-09T00:26:49.728Z,39.79
2023-09-09T00:29:36.126Z,39.84
2023-09-09T00:32:22.218Z,40.22
2023-09-09T00:35:08.405Z,40.05
2023-09-09T00:37:55.627Z,39.92
2023-09-09T00:40:44.795Z,40.10
2023-09-09T00:43:32.041Z,40.25
2023-09-09T00:46:18.972Z,40.34
2023-09-09T00:49:05.656Z,40.26
2023-09-09T00:51:51.710Z,40.37
2023-09-09T00:54:37.825Z,40.44
2023-09-09T00:57:24.297Z,40.68
2023-09-09T01:00:11.112Z,40.58
2023-09-09T01:02:57.850Z,40.68
2023-09-09T01:05:45.564Z,40.81
2023-09-09T01:08:33.123Z,40.78
2023-09-09T01:11:19.240Z,40.75
2023-09-09T01:14:05.519Z,41.11
2023-09-09T01:16:53.152Z,41.47
2023-09-09T01:19:39.563Z,41.27
2023-09-09T01:22:27.387Z,41.36
2023-09-09T01:25:13.791Z,41.35
2023-09-09T01:28:00.704Z,41.37
2023-09-09T01:30:47.028Z,41.65
2023-09-09T01:33:33.304Z,41.58
2023-09-09T01:36:19.612Z,41.62
2023-09-09T01:39:05.696Z,41.64
2023-09-09T01:41:52.329Z,41.81
2023-09-09T01:44:38.518Z,41.96
2023-09-09T01:47:24.895Z,42.13
2023-09-09T01:50:10.902Z,41.88
2023-09-09T01:52:57.269Z,42.09
2023-09-09T01:55:43.052Z,42.18
2023-09-09T01:58:29.358Z,42.24
2023-09-09T02:01:15.540Z,42.40
2023-09-09T02:04:01.679Z,42.44
2023-09-09T02:06:47.839Z,42.51
2023-09-09T02:09:35.085Z,42.52
2023-09-09T02:12:20.900Z,42.58
2023-09-09T02:15:08.189Z,42.59
2023-09-09T02:17:54.318Z,42.72
2023-09-09T02:20:40.954Z,42.65
2023-09-09T02:23:28.838Z,42.83
2023-09-09T02:26:15.096Z,42.83
2023-09-09T02:29:03.421Z,42.91
2023-09-09T02:31:49.228Z,42.91
2023-09-09T02:34:35.331Z,42.93
2023-09-09T02:37:22.672Z,43.08
2023-09-09T02:40:09.521Z,42.94
2023-09-09T02:42:55.549Z,42.99
2023-09-09T02:45:41.697Z,43.13
2023-09-09T02:48:27.890Z,43.18
2023-09-09T02:51:14.456Z,43.15
2023-09-09T02:54:00.348Z,43.36
2023-09-09T02:56:47.986Z,43.73
2023-09-09T02:59:34.992Z,43.42
2023-09-09T03:02:24.924Z,43.42
2023-09-09T03:05:11.200Z,43.60
2023-09-09T03:08:00.072Z,43.65
2023-09-09T03:10:47.355Z,43.68
2023-09-09T03:13:33.558Z,43.69
2023-09-09T03:16:20.026Z,43.83
2023-09-09T03:19:06.607Z,43.88
2023-09-09T03:21:53.196Z,44.00
2023-09-09T03:24:39.110Z,43.96
2023-09-09T03:27:26.348Z,44.08
2023-09-09T03:30:12.946Z,44.31
2023-09-09T03:33:00.479Z,44.52
2023-09-09T03:35:46.570Z,44.36
2023-09-09T03:38:32.813Z,44.63
2023-09-09T03:41:18.971Z,44.16
2023-09-09T03:44:05.529Z,44.58
2023-09-09T03:46:51.670Z,44.68
2023-09-09T03:49:37.475Z,44.79
2023-09-09T03:52:24.030Z,44.80
2023-09-09T03:55:09.907Z,44.97
2023-09-09T03:57:56.161Z,44.97
2023-09-09T04:00:42.134Z,44.82
2023-09-09T04:03:29.641Z,45.07
2023-09-09T04:06:18.264Z,45.00
2023-09-09T04:09:04.171Z,45.05
2023-09-09T04:11:50.560Z,45.28
2023-09-09T04:14:39.462Z,45.28
2023-09-09T04:17:25.719Z,45.13
2023-09-09T04:20:12.484Z,45.14
2023-09-09T04:23:00.013Z,45.23
2023-09-09T04:25:46.377Z,45.41
2023-09-09T04:28:33.211Z,45.53
2023-09-09T04:31:19.543Z,45.57
2023-09-09T04:34:06.093Z,45.75
2023-09-09T04:36:52.108Z,45.50
2023-09-09T04:39:39.396Z,45.27
2023-09-09T04:42:25.587Z,45.47
2023-09-09T04:45:11.907Z,45.43
2023-09-09T04:48:00.621Z,45.58
2023-09-09T04:50:48.669Z,45.71
2023-09-09T04:53:35.129Z,45.86
2023-09-09T04:56:22.476Z,45.78
2023-09-09T04:59:09.198Z,45.96
2023-09-09T05:01:55.385Z,45.93
2023-09-09T05:04:41.979Z,45.90
2023-09-09T05:07:32.533Z,46.08
2023-09-09T05:10:20.212Z,45.97
2023-09-09T05:13:07.740Z,46.11
2023-09-09T05:15:53.586Z,46.03
2023-09-09T05:18:40.874Z,46.11
2023-09-09T05:21:27.851Z,46.07
2023-09-09T05:24:13.760Z,46.16
2023-09-09T05:26:59.584Z,46.13
2023-09-09T05:29:45.789Z,46.20
2023-09-09T05:32:32.022Z,46.18
2023-09-09T05:35:18.195Z,46.18
2023-09-09T05:38:04.551Z,46.25
2023-09-09T05:40:50.693Z,46.15
2023-09-09T05:43:36.881Z,46.19
2023-09-09T05:46:23.346Z,46.22
2023-09-09T05:49:09.482Z,46.37
2023-09-09T05:51:55.371Z,46.48
2023-09-09T05:54:41.306Z,46.41
2023-09-09T05:57:28.089Z,46.48
2023-09-09T06:00:14.049Z,46.55
2023-09-09T06:03:03.706Z,46.34
2023-09-09T06:05:49.669Z,46.24
2023-09-09T06:08:36.030Z,46.32
2023-09-09T06:11:22.352Z,46.35
2023-09-09T06:14:08.156Z,46.14
2023-09-09T06:16:54.338Z,46.17
2023-09-09T06:19:40.334Z,46.22
2023-09-09T06:22:26.732Z,46.17
2023-09-09T06:25:14.615Z,46.19
2023-09-09T06:28:00.406Z,45.91
2023-09-09T06:30:46.530Z,45.73
2023-09-09T06:33:32.344Z,45.93
2023-09-09T06:36:21.363Z,46.07
2023-09-09T06:39:07.993Z,45.88
2023-09-09T06:41:53.846Z,45.74
2023-09-09T06:44:43.802Z,45.82
2023-09-09T06:47:29.698Z,45.73
2023-09-09T06:50:15.625Z,45.76
2023-09-09T06:53:01.768Z,45.68
2023-09-09T06:55:48.680Z,45.62
2023-09-09T06:58:34.561Z,45.48
2023-09-09T07:01:20.811Z,45.38
2023-09-09T07:04:07.538Z,45.48
2023-09-09T07:07:11.626Z,45.58
2023-09-09T07:09:58.824Z,45.44
2023-09-09T07:12:44.991Z,45.30
2023-09-09T07:15:31.088Z,45.35
2023-09-09T07:18:17.071Z,45.34
2023-09-09T07:21:03.917Z,45.11
2023-09-09T07:23:50.207Z,44.95
2023-09-09T07:26:37.897Z,44.95
2023-09-09T07:29:23.908Z,44.90
2023-09-09T07:32:10.053Z,44.82
2023-09-09T07:34:55.865Z,44.82
2023-09-09T07:37:41.991Z,44.83
2023-09-09T07:40:27.836Z,44.55
2023-09-09T07:43:16.226Z,44.71
2023-09-09T07:46:03.612Z,44.49
2023-09-09T07:48:49.304Z,44.61
2023-09-09T07:51:35.061Z,44.39
2023-09-09T07:54:21.591Z,44.27
2023-09-09T07:57:07.661Z,44.06
2023-09-09T07:59:53.523Z,44.09
2023-09-09T08:02:39.515Z,44.09
2023-09-09T08:05:25.774Z,43.88
2023-09-09T08:08:12.274Z,43.74
2023-09-09T08:10:58.316Z,43.82
2023-09-09T08:13:44.093Z,43.62
2023-09-09T08:16:33.781Z,43.48
2023-09-09T08:19:20.265Z,43.38
2023-09-09T08:22:06.533Z,43.39
2023-09-09T08:24:52.845Z,43.25
2023-09-09T08:27:40.479Z,43.25
2023-09-09T08:30:26.857Z,43.13
2023-09-09T08:33:13.197Z,43.24
2023-09-09T08:36:06.480Z,42.94
2023-09-09T08:38:58.052Z,42.83
2023-09-09T08:42:08.421Z,42.24
2023-09-09T08:45:20.796Z,41.97
2023-09-09T08:48:10.630Z,41.86
2023-09-09T08:51:00.616Z,41.47
2023-09-09T08:53:47.931Z,41.34
2023-09-09T08:56:34.203Z,41.00
2023-09-09T08:59:21.024Z,40.77
2023-09-09T09:02:30.388Z,40.52
2023-09-09T09:05:18.451Z,40.25
2023-09-09T09:08:06.989Z,39.85
2023-09-09T09:11:03.010Z,39.67
2023-09-09T09:13:56.219Z,39.32
2023-09-09T09:16:43.383Z,39.65
2023-09-09T09:19:37.448Z,39.33
2023-09-09T09:22:24.034Z,39.24
2023-09-09T09:25:31.273Z,38.61
2023-09-09T09:28:17.851Z,38.86
2023-09-09T09:31:20.270Z,38.42
2023-09-09T09:34:06.380Z,37.93
2023-09-09T09:36:53.959Z,37.83
2023-09-09T09:39:41.579Z,38.14
2023-09-09T09:42:30.051Z,37.64
2023-09-09T09:45:16.949Z,37.49
2023-09-09T09:48:03.405Z,37.38
2023-09-09T09:50:53.237Z,37.07
2023-09-09T09:53:53.481Z,36.42
2023-09-09T09:56:40.386Z,36.57
2023-09-09T09:59:36.344Z,36.71
2023-09-09T10:02:25.861Z,36.76
2023-09-09T10:05:15.384Z,36.57
2023-09-09T10:08:04.454Z,36.58
2023-09-09T10:11:16.447Z,35.99
2023-09-09T10:14:09.738Z,35.95
2023-09-09T10:16:58.380Z,35.86
2023-09-09T10:19:45.015Z,35.94
2023-09-09T10:22:32.954Z,35.93
2023-09-09T10:25:18.985Z,35.25
2023-09-09T10:28:07.437Z,35.47
2023-09-09T10:30:57.212Z,35.10
2023-09-09T10:34:00.678Z,35.32
2023-09-09T10:37:01.202Z,34.41
2023-09-09T10:39:56.522Z,34.21
2023-09-09T10:43:03.473Z,33.98
2023-09-09T10:45:55.752Z,33.92
2023-09-09T10:48:46.724Z,34.06
2023-09-09T10:51:51.984Z,33.56
2023-09-09T10:54:38.246Z,33.00
2023-09-09T10:57:35.378Z,32.72
2023-09-09T11:00:45.162Z,32.33
2023-09-09T11:03:50.021Z,32.26
2023-09-09T11:06:35.813Z,31.60
2023-09-09T11:09:31.309Z,31.15
2023-09-09T11:12:17.977Z,30.79
2023-09-09T11:15:12.843Z,30.91
2023-09-09T11:18:00.465Z,30.46
2023-09-09T11:20:46.711Z,30.13
2023-09-09T11:23:33.568Z,29.50
2023-09-09T11:26:20.076Z,29.61
2023-09-09T11:29:25.532Z,29.45
2023-09-09T11:32:31.056Z,29.18
2023-09-09T11:35:17.656Z,29.35
2023-09-09T11:38:09.813Z,28.97
2023-09-09T11:40:57.088Z,29.17
2023-09-09T11:44:08.182Z,28.59
2023-09-09T11:46:55.196Z,28.45
2023-09-09T11:49:49.880Z,28.05
2023-09-09T11:52:36.454Z,28.32
2023-09-09T11:55:41.664Z,27.18
2023-09-09T11:58:41.632Z,26.95
2023-09-09T12:01:28.733Z,25.81
2023-09-09T12:04:15.522Z,25.35
2023-09-09T12:07:02.065Z,25.60
2023-09-09T12:09:48.545Z,25.42
2023-09-09T12:12:35.477Z,25.30
2023-09-09T12:15:21.677Z,24.63
2023-09-09T12:18:14.794Z,23.92
2023-09-09T12:21:09.292Z,23.52
2023-09-09T12:24:01.624Z,23.11
2023-09-09T12:26:52.642Z,22.32
2023-09-09T12:29:49.997Z,20.53
2023-09-09T12:32:35.950Z,20.37
2023-09-09T12:35:22.156Z,19.69
2023-09-09T12:38:08.431Z,18.42
2023-09-09T12:41:00.432Z,17.88
2023-09-09T12:43:47.978Z,17.58
2023-09-09T12:46:34.303Z,17.20
2023-09-09T12:49:20.774Z,16.87
2023-09-09T12:52:07.361Z,16.19
2023-09-09T12:54:53.602Z,15.74
2023-09-09T12:57:39.908Z,15.68
2023-09-09T13:00:26.058Z,15.73
2023-09-09T13:03:14.514Z,14.93
2023-09-09T13:06:00.951Z,15.25
2023-09-09T13:08:46.838Z,15.33
2023-09-09T13:11:33.078Z,14.94
2023-09-09T13:14:26.649Z,14.98
2023-09-09T13:17:13.040Z,15.10
2023-09-09T13:20:00.075Z,15.23
2023-09-09T13:22:51.662Z,14.78
2023-09-09T13:25:38.098Z,14.47
2023-09-09T13:28:25.158Z,14.24
2023-09-09T13:31:11.188Z,13.94
2023-09-09T13:33:58.333Z,13.86
2023-09-09T13:36:44.492Z,14.06
2023-09-09T13:39:30.666Z,13.16
2023-09-09T13:42:16.897Z,13.47
2023-09-09T13:47:52.935Z,12.96
2023-09-09T13:50:42.203Z,12.60
2023-09-09T13:53:28.275Z,12.50
2023-09-09T13:56:14.465Z,11.99
2023-09-09T13:59:00.437Z,12.22
2023-09-09T14:02:31.682Z,11.66
2023-09-09T14:05:17.553Z,12.43
2023-09-09T14:08:04.178Z,12.25
2023-09-09T14:10:49.912Z,12.51
2023-09-09T14:13:37.533Z,12.66
2023-09-09T14:16:23.694Z,12.56
2023-09-09T14:19:09.622Z,12.93
2023-09-09T14:21:55.434Z,12.89
2023-09-09T14:24:41.781Z,13.02
2023-09-09T14:27:28.131Z,12.96
2023-09-09T14:30:14.880Z,13.24
2023-09-09T14:33:03.555Z,12.90
2023-09-09T14:35:49.685Z,12.84
2023-09-09T14:38:35.945Z,12.43
2023-09-09T14:41:22.423Z,12.67
2023-09-09T14:44:08.480Z,12.59
2023-09-09T14:46:54.583Z,11.75
2023-09-09T14:49:42.660Z,12.12
2023-09-09T14:52:29.073Z,12.33
2023-09-09T14:55:15.917Z,13.24
2023-09-09T14:58:02.296Z,13.75
2023-09-09T15:00:48.075Z,14.15
2023-09-09T15:03:34.200Z,15.10
2023-09-09T15:06:20.231Z,15.25
2023-09-09T15:09:06.342Z,15.52
2023-09-09T15:11:52.907Z,16.34
2023-09-09T15:14:39.229Z,16.66
2023-09-09T15:17:25.711Z,17.14
2023-09-09T15:20:12.481Z,17.58
2023-09-09T15:22:58.393Z,17.69
2023-09-09T15:25:44.630Z,17.85
2023-09-09T15:28:30.669Z,18.01
2023-09-09T15:31:18.483Z,18.12
2023-09-09T15:34:04.639Z,18.45
2023-09-09T15:36:50.812Z,18.48
2023-09-09T15:39:36.817Z,18.99
2023-09-09T15:43:30.347Z,19.42
2023-09-09T15:46:16.571Z,19.42
2023-09-09T15:50:18.068Z,19.77
2023-09-09T15:53:04.916Z,19.82
2023-09-09T15:55:52.720Z,20.24
2023-09-09T15:58:59.639Z,20.44
2023-09-09T16:01:53.954Z,20.62
2023-09-09T16:05:00.541Z,20.78
2023-09-09T16:08:27.699Z,21.58
2023-09-09T16:11:15.741Z,21.51
2023-09-09T16:14:01.790Z,22.08
2023-09-09T16:16:54.162Z,22.15
2023-09-09T16:23:48.809Z,21.94
2023-09-09T16:26:54.574Z,22.62
2023-09-09T16:30:03.413Z,22.63
2023-09-09T16:34:02.641Z,23.00
2023-09-09T16:37:07.936Z,22.96
2023-09-09T16:40:05.670Z,22.89
2023-09-09T16:42:56.749Z,23.09
2023-09-09T16:49:57.139Z,23.39
2023-09-09T16:52:43.226Z,23.53
2023-09-09T16:55:29.781Z,23.77
2023-09-09T16:58:15.835Z,23.84
2023-09-09T17:01:02.108Z,23.82
2023-09-09T17:03:48.516Z,24.15
2023-09-09T17:06:34.611Z,24.31
2023-09-09T17:09:22.662Z,24.23
2023-09-09T17:12:10.357Z,24.27
2023-09-09T17:14:57.069Z,24.48
2023-09-09T17:17:43.024Z,24.37
2023-09-09T17:20:29.584Z,24.38
2023-09-09T17:23:15.755Z,24.65
2023-09-09T17:26:02.892Z,25.00
2023-09-09T17:28:48.793Z,24.69
2023-09-09T17:31:35.065Z,25.11
2023-09-09T17:34:21.543Z,24.84
2023-09-09T17:37:07.769Z,25.02
2023-09-09T17:39:53.845Z,24.99
2023-09-09T17:42:40.032Z,25.21
2023-09-09T17:45:26.099Z,25.16
2023-09-09T17:48:12.122Z,25.16
2023-09-09T17:50:58.039Z,25.32
2023-09-09T17:53:43.772Z,25.37
2023-09-09T17:56:31.214Z,25.72
2023-09-09T17:59:19.479Z,25.65
2023-09-09T18:02:12.493Z,25.58
2023-09-09T18:04:58.478Z,25.86
2023-09-09T18:07:44.545Z,25.99
2023-09-09T18:10:30.774Z,26.06
2023-09-09T18:13:16.634Z,26.17
2023-09-09T18:16:02.738Z,26.19
2023-09-09T18:18:48.672Z,26.29
2023-09-09T18:21:34.630Z,26.47
2023-09-09T18:24:20.534Z,26.50
2023-09-09T18:27:06.800Z,26.75
2023-09-09T18:29:53.034Z,27.00
2023-09-09T18:32:41.538Z,27.01
2023-09-09T18:35:28.015Z,27.18
2023-09-09T18:38:14.245Z,27.31
2023-09-09T18:41:03.349Z,27.35
2023-09-09T18:43:51.002Z,27.33
2023-09-09T18:46:36.997Z,27.62
2023-09-09T18:49:23.578Z,27.47
2023-09-09T18:52:09.434Z,27.63
2023-09-09T18:54:55.319Z,27.79
2023-09-09T18:57:41.108Z,27.69
2023-09-09T19:00:30.001Z,27.89
2023-09-09T19:03:18.491Z,27.79
2023-09-09T19:06:07.423Z,27.98
2023-09-09T19:08:53.361Z,28.18
2023-09-09T19:11:40.655Z,28.37
2023-09-09T19:14:28.004Z,28.58
2023-09-09T19:17:19.732Z,28.41
2023-09-09T19:20:11.374Z,28.56
2023-09-09T19:23:01.599Z,28.56
2023-09-09T19:26:01.891Z,28.69
2023-09-09T19:28:49.558Z,28.89
2023-09-09T19:31:36.726Z,29.00
2023-09-09T19:34:39.054Z,29.12
2023-09-09T19:37:35.830Z,29.17
2023-09-09T19:40:25.245Z,29.24
2023-09-09T19:43:15.705Z,29.38
2023-09-09T19:46:02.766Z,29.44
2023-09-09T19:48:49.189Z,29.65
2023-09-09T19:51:35.302Z,29.61
2023-09-09T19:54:21.931Z,29.68
2023-09-09T19:57:08.319Z,29.54
2023-09-09T19:59:54.126Z,29.66
2023-09-09T20:02:40.635Z,29.77
2023-09-09T20:05:26.932Z,29.95
2023-09-09T20:08:13.197Z,29.87
2023-09-09T20:11:04.533Z,29.95
2023-09-09T20:13:51.026Z,30.05
2023-09-09T20:16:36.901Z,30.30
2023-09-09T20:19:23.403Z,30.12
2023-09-09T20:22:09.458Z,30.36
2023-09-09T20:24:55.623Z,30.38
2023-09-09T20:27:44.401Z,30.45
2023-09-09T20:30:32.011Z,30.60
2023-09-09T20:33:18.861Z,30.58
2023-09-09T20:36:05.979Z,30.45
2023-09-09T20:38:52.658Z,30.58
2023-09-09T20:41:38.979Z,30.69
2023-09-09T20:44:25.097Z,30.87
2023-09-09T20:47:14.202Z,30.98
2023-09-09T20:50:00.362Z,31.12
2023-09-09T20:52:48.882Z,31.13
2023-09-09T20:55:34.894Z,31.26
2023-09-09T20:58:21.276Z,31.29
2023-09-09T21:01:07.285Z,31.43
2023-09-09T21:03:53.680Z,31.65
2023-09-09T21:06:39.820Z,31.59
2023-09-09T21:09:25.714Z,31.83
2023-09-09T21:12:11.480Z,31.96
2023-09-09T21:14:57.433Z,32.10
2023-09-09T21:17:44.567Z,32.15
2023-09-09T21:20:30.503Z,32.13
2023-09-09T21:23:16.789Z,32.37
2023-09-09T21:26:03.285Z,32.54
2023-09-09T21:28:49.406Z,32.50
2023-09-09T21:31:35.698Z,32.56
2023-09-09T21:34:21.966Z,32.74
2023-09-09T21:37:08.019Z,32.50
2023-09-09T21:39:53.952Z,32.86
2023-09-09T21:42:40.027Z,32.95
2023-09-09T21:45:25.955Z,32.87
2023-09-09T21:48:12.068Z,32.92
2023-09-09T21:50:58.160Z,33.00
2023-09-09T21:53:44.144Z,33.04
2023-09-09T21:56:30.178Z,33.01
2023-09-09T21:59:18.024Z,32.95
2023-09-09T22:02:04.495Z,33.08
2023-09-09T22:04:50.625Z,33.29
2023-09-09T22:07:37.516Z,33.33
2023-09-09T22:10:23.427Z,33.43
2023-09-09T22:13:09.266Z,33.44
2023-09-09T22:15:55.631Z,33.53
2023-09-09T22:18:41.987Z,33.82
2023-09-09T22:21:27.872Z,33.68
2023-09-09T22:24:13.552Z,33.86
2023-09-09T22:27:00.736Z,33.75
2023-09-09T22:29:46.589Z,34.08
2023-09-09T22:32:34.724Z,34.39
2023-09-09T22:35:29.193Z,34.39
2023-09-09T22:38:14.978Z,34.63
2023-09-09T22:41:00.998Z,34.60
2023-09-09T22:43:47.104Z,34.68
2023-09-09T22:46:33.498Z,34.67
2023-09-09T22:49:19.781Z,34.90
2023-09-09T22:52:06.268Z,34.92
2023-09-09T22:54:53.606Z,35.01
2023-09-09T22:57:39.809Z,35.04
2023-09-09T23:00:25.737Z,35.00
2023-09-09T23:03:11.772Z,35.03
2023-09-09T23:06:08.113Z,35.06
2023-09-09T23:08:55.354Z,35.17
2023-09-09T23:11:46.195Z,35.10
2023-09-09T23:14:33.713Z,35.50
2023-09-09T23:17:21.879Z,35.45
2023-09-09T23:20:24.350Z,35.50
2023-09-09T23:23:12.805Z,35.63
2023-09-09T23:26:01.235Z,35.52
2023-09-09T23:28:49.847Z,35.50
2023-09-09T23:31:42.724Z,35.69
2023-09-09T23:34:34.271Z,35.89
2023-09-09T23:37:29.361Z,35.95
2023-09-09T23:40:23.152Z,36.10
2023-09-09T23:43:08.992Z,36.26
2023-09-09T23:45:56.088Z,36.20
2023-09-09T23:48:42.197Z,36.26
2023-09-09T23:51:28.341Z,36.35
2023-09-09T23:54:14.392Z,36.45
2023-09-09T23:57:00.500Z,36.62
2023-09-09T23:59:46.446Z,36.65
